sensor_id;sensor_type;location;lat;lon;timestamp;P1;durP1;ratioP1;P2;durP2;ratioP2
37425;SDS011;23285;50.180;7.036;2022-08-03T00:00:29;1.70;;;1.60;;
37425;SDS011;23285;50.180;7.036;2022-08-03T00:03:15;2.17;;;1.67;;
37425;SDS011;23285;50.180;7.036;2022-08-03T00:06:00;1.70;;;1.60;;
37425;SDS011;23285;50.180;7.036;2022-08-03T00:08:46;1.57;;;1.47;;
37425;SDS011;23285;50.180;7.036;2022-08-03T00:11:31;2.77;;;1.70;;
37425;SDS011;23285;50.180;7.036;2022-08-03T00:14:17;1.67;;;1.57;;
37425;SDS011;23285;50.180;7.036;2022-08-03T00:17:02;1.70;;;1.60;;
37425;SDS011;23285;50.180;7.036;2022-08-03T00:19:48;1.97;;;1.70;;
37425;SDS011;23285;50.180;7.036;2022-08-03T00:22:33;1.73;;;1.63;;
37425;SDS011;23285;50.180;7.036;2022-08-03T00:25:19;1.60;;;1.50;;
37425;SDS011;23285;50.180;7.036;2022-08-03T00:28:04;2.10;;;1.70;;
37425;SDS011;23285;50.180;7.036;2022-08-03T00:30:49;1.97;;;1.63;;
37425;SDS011;23285;50.180;7.036;2022-08-03T00:33:34;1.93;;;1.73;;
37425;SDS011;23285;50.180;7.036;2022-08-03T00:36:19;1.90;;;1.70;;
37425;SDS011;23285;50.180;7.036;2022-08-03T00:39:04;1.80;;;1.70;;
37425;SDS011;23285;50.180;7.036;2022-08-03T00:41:49;1.60;;;1.50;;
37425;SDS011;23285;50.180;7.036;2022-08-03T00:44:38;1.90;;;1.70;;
37425;SDS011;23285;50.180;7.036;2022-08-03T00:47:24;1.70;;;1.60;;
37425;SDS011;23285;50.180;7.036;2022-08-03T00:50:09;2.60;;;1.80;;
37425;SDS011;23285;50.180;7.036;2022-08-03T00:52:55;2.47;;;1.70;;
37425;SDS011;23285;50.180;7.036;2022-08-03T00:55:42;1.67;;;1.57;;
37425;SDS011;23285;50.180;7.036;2022-08-03T00:58:27;1.90;;;1.80;;
37425;SDS011;23285;50.180;7.036;2022-08-03T01:01:13;1.60;;;1.50;;
37425;SDS011;23285;50.180;7.036;2022-08-03T01:03:59;2.43;;;1.70;;
37425;SDS011;23285;50.180;7.036;2022-08-03T01:06:48;2.23;;;1.70;;
37425;SDS011;23285;50.180;7.036;2022-08-03T01:15:28;1.70;;;1.60;;
37425;SDS011;23285;50.180;7.036;2022-08-03T01:21:30;3.97;;;1.63;;
37425;SDS011;23285;50.180;7.036;2022-08-03T01:30:25;1.60;;;1.50;;
37425;SDS011;23285;50.180;7.036;2022-08-03T01:33:18;1.80;;;1.70;;
37425;SDS011;23285;50.180;7.036;2022-08-03T01:36:04;1.87;;;1.77;;
37425;SDS011;23285;50.180;7.036;2022-08-03T01:38:55;2.00;;;1.90;;
37425;SDS011;23285;50.180;7.036;2022-08-03T01:41:48;3.53;;;1.90;;
37425;SDS011;23285;50.180;7.036;2022-08-03T01:44:37;2.00;;;1.90;;
37425;SDS011;23285;50.180;7.036;2022-08-03T01:47:25;1.80;;;1.70;;
37425;SDS011;23285;50.180;7.036;2022-08-03T01:50:12;2.07;;;1.80;;
37425;SDS011;23285;50.180;7.036;2022-08-03T01:52:57;3.03;;;1.70;;
37425;SDS011;23285;50.180;7.036;2022-08-03T01:55:44;2.50;;;1.80;;
37425;SDS011;23285;50.180;7.036;2022-08-03T01:58:32;2.13;;;1.80;;
37425;SDS011;23285;50.180;7.036;2022-08-03T02:01:19;1.70;;;1.60;;
37425;SDS011;23285;50.180;7.036;2022-08-03T02:04:06;2.77;;;1.60;;
37425;SDS011;23285;50.180;7.036;2022-08-03T02:06:52;1.97;;;1.77;;
37425;SDS011;23285;50.180;7.036;2022-08-03T02:09:38;1.47;;;1.37;;
37425;SDS011;23285;50.180;7.036;2022-08-03T02:12:25;2.63;;;1.90;;
37425;SDS011;23285;50.180;7.036;2022-08-03T02:15:11;1.77;;;1.67;;
37425;SDS011;23285;50.180;7.036;2022-08-03T02:17:59;1.77;;;1.67;;
37425;SDS011;23285;50.180;7.036;2022-08-03T02:20:45;1.57;;;1.30;;
37425;SDS011;23285;50.180;7.036;2022-08-03T02:23:31;1.63;;;1.53;;
37425;SDS011;23285;50.180;7.036;2022-08-03T02:26:16;2.47;;;1.67;;
37425;SDS011;23285;50.180;7.036;2022-08-03T02:29:06;1.70;;;1.60;;
37425;SDS011;23285;50.180;7.036;2022-08-03T02:32:02;1.87;;;1.77;;
37425;SDS011;23285;50.180;7.036;2022-08-03T02:34:49;2.10;;;1.90;;
37425;SDS011;23285;50.180;7.036;2022-08-03T02:37:40;1.70;;;1.60;;
37425;SDS011;23285;50.180;7.036;2022-08-03T02:40:28;1.70;;;1.60;;
37425;SDS011;23285;50.180;7.036;2022-08-03T02:43:16;1.70;;;1.60;;
37425;SDS011;23285;50.180;7.036;2022-08-03T02:46:03;2.40;;;2.00;;
37425;SDS011;23285;50.180;7.036;2022-08-03T02:48:51;1.80;;;1.70;;
37425;SDS011;23285;50.180;7.036;2022-08-03T02:51:37;1.90;;;1.80;;
37425;SDS011;23285;50.180;7.036;2022-08-03T02:54:25;2.83;;;1.70;;
37425;SDS011;23285;50.180;7.036;2022-08-03T02:57:11;1.90;;;1.80;;
37425;SDS011;23285;50.180;7.036;2022-08-03T02:59:58;1.90;;;1.80;;
37425;SDS011;23285;50.180;7.036;2022-08-03T03:02:44;1.60;;;1.50;;
37425;SDS011;23285;50.180;7.036;2022-08-03T03:05:30;2.13;;;1.97;;
37425;SDS011;23285;50.180;7.036;2022-08-03T03:08:16;1.80;;;1.70;;
37425;SDS011;23285;50.180;7.036;2022-08-03T03:11:03;1.90;;;1.80;;
37425;SDS011;23285;50.180;7.036;2022-08-03T03:13:48;3.63;;;2.13;;
37425;SDS011;23285;50.180;7.036;2022-08-03T03:16:35;2.07;;;1.87;;
37425;SDS011;23285;50.180;7.036;2022-08-03T03:19:20;2.17;;;2.00;;
37425;SDS011;23285;50.180;7.036;2022-08-03T03:22:06;3.53;;;1.80;;
37425;SDS011;23285;50.180;7.036;2022-08-03T03:24:53;2.60;;;1.93;;
37425;SDS011;23285;50.180;7.036;2022-08-03T03:27:39;2.50;;;1.70;;
37425;SDS011;23285;50.180;7.036;2022-08-03T03:30:24;1.90;;;1.80;;
37425;SDS011;23285;50.180;7.036;2022-08-03T03:33:10;1.90;;;1.80;;
37425;SDS011;23285;50.180;7.036;2022-08-03T03:35:56;1.80;;;1.70;;
37425;SDS011;23285;50.180;7.036;2022-08-03T03:38:42;2.70;;;1.80;;
37425;SDS011;23285;50.180;7.036;2022-08-03T03:41:27;2.00;;;1.90;;
37425;SDS011;23285;50.180;7.036;2022-08-03T03:44:12;2.23;;;2.03;;
37425;SDS011;23285;50.180;7.036;2022-08-03T03:46:57;1.93;;;1.83;;
37425;SDS011;23285;50.180;7.036;2022-08-03T03:49:43;1.80;;;1.70;;
37425;SDS011;23285;50.180;7.036;2022-08-03T03:52:29;2.30;;;2.10;;
37425;SDS011;23285;50.180;7.036;2022-08-03T03:55:16;9.60;;;2.57;;
37425;SDS011;23285;50.180;7.036;2022-08-03T03:58:01;4.07;;;2.57;;
37425;SDS011;23285;50.180;7.036;2022-08-03T04:00:47;9.40;;;2.67;;
37425;SDS011;23285;50.180;7.036;2022-08-03T04:03:33;2.57;;;2.00;;
37425;SDS011;23285;50.180;7.036;2022-08-03T04:06:19;2.30;;;2.13;;
37425;SDS011;23285;50.180;7.036;2022-08-03T04:09:23;1.87;;;1.77;;
37425;SDS011;23285;50.180;7.036;2022-08-03T04:12:27;2.00;;;1.80;;
37425;SDS011;23285;50.180;7.036;2022-08-03T04:15:13;2.33;;;1.80;;
37425;SDS011;23285;50.180;7.036;2022-08-03T04:17:58;2.30;;;2.10;;
37425;SDS011;23285;50.180;7.036;2022-08-03T04:20:46;2.07;;;1.97;;
37425;SDS011;23285;50.180;7.036;2022-08-03T04:23:33;2.90;;;2.20;;
37425;SDS011;23285;50.180;7.036;2022-08-03T04:26:21;2.10;;;2.00;;
37425;SDS011;23285;50.180;7.036;2022-08-03T04:29:10;2.33;;;2.13;;
37425;SDS011;23285;50.180;7.036;2022-08-03T04:31:58;3.80;;;2.20;;
37425;SDS011;23285;50.180;7.036;2022-08-03T04:34:44;3.27;;;2.33;;
37425;SDS011;23285;50.180;7.036;2022-08-03T04:37:46;3.40;;;2.37;;
37425;SDS011;23285;50.180;7.036;2022-08-03T04:40:36;8.77;;;2.83;;
37425;SDS011;23285;50.180;7.036;2022-08-03T04:43:23;8.40;;;2.43;;
37425;SDS011;23285;50.180;7.036;2022-08-03T04:46:10;6.50;;;2.87;;
37425;SDS011;23285;50.180;7.036;2022-08-03T04:48:56;11.10;;;2.80;;
37425;SDS011;23285;50.180;7.036;2022-08-03T04:51:41;8.07;;;2.60;;
37425;SDS011;23285;50.180;7.036;2022-08-03T04:54:26;7.07;;;2.63;;
37425;SDS011;23285;50.180;7.036;2022-08-03T04:57:11;7.17;;;2.50;;
37425;SDS011;23285;50.180;7.036;2022-08-03T04:59:57;5.60;;;2.33;;
37425;SDS011;23285;50.180;7.036;2022-08-03T05:02:42;5.33;;;2.17;;
37425;SDS011;23285;50.180;7.036;2022-08-03T05:05:27;5.33;;;2.20;;
37425;SDS011;23285;50.180;7.036;2022-08-03T05:08:12;2.37;;;2.17;;
37425;SDS011;23285;50.180;7.036;2022-08-03T05:10:57;4.83;;;2.27;;
37425;SDS011;23285;50.180;7.036;2022-08-03T05:13:45;6.93;;;2.53;;
37425;SDS011;23285;50.180;7.036;2022-08-03T05:16:31;2.53;;;2.30;;
37425;SDS011;23285;50.180;7.036;2022-08-03T05:19:17;2.53;;;2.33;;
37425;SDS011;23285;50.180;7.036;2022-08-03T05:22:02;3.73;;;2.30;;
37425;SDS011;23285;50.180;7.036;2022-08-03T05:24:47;2.77;;;2.53;;
37425;SDS011;23285;50.180;7.036;2022-08-03T05:27:32;2.93;;;2.60;;
37425;SDS011;23285;50.180;7.036;2022-08-03T05:30:18;2.50;;;2.30;;
37425;SDS011;23285;50.180;7.036;2022-08-03T05:33:03;3.27;;;2.80;;
37425;SDS011;23285;50.180;7.036;2022-08-03T05:35:49;2.87;;;2.67;;
37425;SDS011;23285;50.180;7.036;2022-08-03T05:38:33;2.50;;;2.30;;
37425;SDS011;23285;50.180;7.036;2022-08-03T05:41:19;3.93;;;2.50;;
37425;SDS011;23285;50.180;7.036;2022-08-03T05:44:04;3.20;;;2.53;;
37425;SDS011;23285;50.180;7.036;2022-08-03T05:46:49;2.70;;;2.50;;
37425;SDS011;23285;50.180;7.036;2022-08-03T05:49:35;2.77;;;2.57;;
37425;SDS011;23285;50.180;7.036;2022-08-03T05:52:19;2.70;;;2.50;;
37425;SDS011;23285;50.180;7.036;2022-08-03T05:55:07;2.53;;;2.30;;
37425;SDS011;23285;50.180;7.036;2022-08-03T05:57:53;2.40;;;2.20;;
37425;SDS011;23285;50.180;7.036;2022-08-03T06:00:38;2.40;;;2.30;;
37425;SDS011;23285;50.180;7.036;2022-08-03T06:03:24;2.57;;;2.37;;
37425;SDS011;23285;50.180;7.036;2022-08-03T06:06:09;2.80;;;2.27;;
37425;SDS011;23285;50.180;7.036;2022-08-03T06:08:54;2.47;;;2.13;;
37425;SDS011;23285;50.180;7.036;2022-08-03T06:11:39;6.00;;;2.40;;
37425;SDS011;23285;50.180;7.036;2022-08-03T06:14:25;3.10;;;2.37;;
37425;SDS011;23285;50.180;7.036;2022-08-03T06:17:10;6.97;;;2.57;;
37425;SDS011;23285;50.180;7.036;2022-08-03T06:19:55;3.40;;;2.67;;
37425;SDS011;23285;50.180;7.036;2022-08-03T06:22:40;2.23;;;2.10;;
37425;SDS011;23285;50.180;7.036;2022-08-03T06:25:26;1.90;;;1.80;;
37425;SDS011;23285;50.180;7.036;2022-08-03T06:28:11;4.77;;;2.23;;
37425;SDS011;23285;50.180;7.036;2022-08-03T06:31:01;4.10;;;2.40;;
37425;SDS011;23285;50.180;7.036;2022-08-03T06:33:47;3.20;;;2.20;;
37425;SDS011;23285;50.180;7.036;2022-08-03T06:36:32;2.40;;;2.20;;
37425;SDS011;23285;50.180;7.036;2022-08-03T06:39:17;2.20;;;1.97;;
37425;SDS011;23285;50.180;7.036;2022-08-03T06:42:02;4.73;;;2.13;;
37425;SDS011;23285;50.180;7.036;2022-08-03T06:44:48;2.00;;;1.90;;
37425;SDS011;23285;50.180;7.036;2022-08-03T06:47:35;1.90;;;1.80;;
37425;SDS011;23285;50.180;7.036;2022-08-03T06:50:21;2.30;;;2.10;;
37425;SDS011;23285;50.180;7.036;2022-08-03T06:53:06;2.90;;;1.90;;
37425;SDS011;23285;50.180;7.036;2022-08-03T06:55:54;1.97;;;1.67;;
37425;SDS011;23285;50.180;7.036;2022-08-03T06:58:39;1.67;;;1.57;;
37425;SDS011;23285;50.180;7.036;2022-08-03T07:01:24;2.20;;;2.00;;
37425;SDS011;23285;50.180;7.036;2022-08-03T07:04:09;3.13;;;2.03;;
37425;SDS011;23285;50.180;7.036;2022-08-03T07:06:54;2.37;;;2.03;;
37425;SDS011;23285;50.180;7.036;2022-08-03T07:09:40;3.30;;;1.90;;
37425;SDS011;23285;50.180;7.036;2022-08-03T07:12:25;2.70;;;1.90;;
37425;SDS011;23285;50.180;7.036;2022-08-03T07:15:12;4.07;;;2.20;;
37425;SDS011;23285;50.180;7.036;2022-08-03T07:17:57;3.20;;;2.10;;
37425;SDS011;23285;50.180;7.036;2022-08-03T07:20:43;2.17;;;1.97;;
37425;SDS011;23285;50.180;7.036;2022-08-03T07:23:28;2.70;;;1.97;;
37425;SDS011;23285;50.180;7.036;2022-08-03T07:26:13;2.90;;;1.90;;
37425;SDS011;23285;50.180;7.036;2022-08-03T07:28:58;2.13;;;1.93;;
37425;SDS011;23285;50.180;7.036;2022-08-03T07:31:44;2.00;;;1.80;;
37425;SDS011;23285;50.180;7.036;2022-08-03T07:34:30;1.50;;;1.40;;
37425;SDS011;23285;50.180;7.036;2022-08-03T07:37:15;2.10;;;1.90;;
37425;SDS011;23285;50.180;7.036;2022-08-03T07:40:00;1.60;;;1.50;;
37425;SDS011;23285;50.180;7.036;2022-08-03T07:42:47;2.50;;;1.70;;
37425;SDS011;23285;50.180;7.036;2022-08-03T07:45:32;2.60;;;1.93;;
37425;SDS011;23285;50.180;7.036;2022-08-03T07:48:17;5.40;;;2.00;;
37425;SDS011;23285;50.180;7.036;2022-08-03T07:51:02;1.87;;;1.53;;
37425;SDS011;23285;50.180;7.036;2022-08-03T07:53:49;1.97;;;1.70;;
37425;SDS011;23285;50.180;7.036;2022-08-03T07:56:35;2.50;;;1.70;;
37425;SDS011;23285;50.180;7.036;2022-08-03T07:59:20;5.13;;;1.93;;
37425;SDS011;23285;50.180;7.036;2022-08-03T08:02:06;6.33;;;1.90;;
37425;SDS011;23285;50.180;7.036;2022-08-03T08:04:51;1.50;;;1.40;;
37425;SDS011;23285;50.180;7.036;2022-08-03T08:07:36;2.33;;;1.60;;
37425;SDS011;23285;50.180;7.036;2022-08-03T08:10:25;3.03;;;1.47;;
37425;SDS011;23285;50.180;7.036;2022-08-03T08:13:10;3.43;;;1.87;;
37425;SDS011;23285;50.180;7.036;2022-08-03T08:15:57;10.10;;;1.67;;
37425;SDS011;23285;50.180;7.036;2022-08-03T08:18:42;2.70;;;1.70;;
37425;SDS011;23285;50.180;7.036;2022-08-03T08:21:28;3.67;;;1.70;;
37425;SDS011;23285;50.180;7.036;2022-08-03T08:24:13;2.87;;;1.40;;
37425;SDS011;23285;50.180;7.036;2022-08-03T08:26:58;1.93;;;1.70;;
37425;SDS011;23285;50.180;7.036;2022-08-03T08:29:44;2.67;;;1.90;;
37425;SDS011;23285;50.180;7.036;2022-08-03T08:32:29;3.70;;;1.67;;
37425;SDS011;23285;50.180;7.036;2022-08-03T08:35:14;2.10;;;1.87;;
37425;SDS011;23285;50.180;7.036;2022-08-03T08:38:00;3.07;;;1.77;;
37425;SDS011;23285;50.180;7.036;2022-08-03T08:40:46;1.70;;;1.57;;
37425;SDS011;23285;50.180;7.036;2022-08-03T08:43:31;7.10;;;1.97;;
37425;SDS011;23285;50.180;7.036;2022-08-03T08:46:17;3.87;;;1.80;;
37425;SDS011;23285;50.180;7.036;2022-08-03T08:49:03;2.73;;;1.80;;
37425;SDS011;23285;50.180;7.036;2022-08-03T08:51:52;1.87;;;1.77;;
37425;SDS011;23285;50.180;7.036;2022-08-03T08:54:40;2.67;;;1.77;;
37425;SDS011;23285;50.180;7.036;2022-08-03T08:57:50;1.97;;;1.77;;
37425;SDS011;23285;50.180;7.036;2022-08-03T09:00:35;4.23;;;1.90;;
37425;SDS011;23285;50.180;7.036;2022-08-03T09:03:21;2.90;;;1.57;;
37425;SDS011;23285;50.180;7.036;2022-08-03T09:06:06;4.53;;;1.77;;
37425;SDS011;23285;50.180;7.036;2022-08-03T09:08:51;4.23;;;2.00;;
37425;SDS011;23285;50.180;7.036;2022-08-03T09:11:36;3.07;;;1.90;;
37425;SDS011;23285;50.180;7.036;2022-08-03T09:14:25;3.53;;;2.60;;
37425;SDS011;23285;50.180;7.036;2022-08-03T09:17:10;1.77;;;1.60;;
37425;SDS011;23285;50.180;7.036;2022-08-03T09:20:03;2.90;;;1.60;;
37425;SDS011;23285;50.180;7.036;2022-08-03T09:23:01;1.77;;;1.33;;
37425;SDS011;23285;50.180;7.036;2022-08-03T09:25:56;2.13;;;1.53;;
37425;SDS011;23285;50.180;7.036;2022-08-03T09:28:41;6.83;;;1.43;;
37425;SDS011;23285;50.180;7.036;2022-08-03T09:34:23;4.97;;;1.43;;
37425;SDS011;23285;50.180;7.036;2022-08-03T09:37:13;1.67;;;1.40;;
37425;SDS011;23285;50.180;7.036;2022-08-03T09:39:59;3.57;;;1.57;;
37425;SDS011;23285;50.180;7.036;2022-08-03T09:42:56;2.67;;;1.53;;
37425;SDS011;23285;50.180;7.036;2022-08-03T09:45:41;4.40;;;1.50;;
37425;SDS011;23285;50.180;7.036;2022-08-03T09:48:31;1.47;;;1.23;;
37425;SDS011;23285;50.180;7.036;2022-08-03T09:51:23;1.30;;;1.20;;
37425;SDS011;23285;50.180;7.036;2022-08-03T09:54:09;9.33;;;1.50;;
37425;SDS011;23285;50.180;7.036;2022-08-03T09:56:54;3.70;;;1.40;;
37425;SDS011;23285;50.180;7.036;2022-08-03T09:59:39;5.20;;;1.40;;
37425;SDS011;23285;50.180;7.036;2022-08-03T10:02:25;1.60;;;1.40;;
37425;SDS011;23285;50.180;7.036;2022-08-03T10:05:11;3.70;;;1.50;;
37425;SDS011;23285;50.180;7.036;2022-08-03T10:07:57;2.03;;;1.33;;
37425;SDS011;23285;50.180;7.036;2022-08-03T10:10:43;1.40;;;1.20;;
37425;SDS011;23285;50.180;7.036;2022-08-03T10:13:29;2.33;;;1.30;;
37425;SDS011;23285;50.180;7.036;2022-08-03T10:16:14;4.60;;;1.30;;
37425;SDS011;23285;50.180;7.036;2022-08-03T10:19:00;2.33;;;1.20;;
37425;SDS011;23285;50.180;7.036;2022-08-03T10:21:49;3.63;;;1.40;;
37425;SDS011;23285;50.180;7.036;2022-08-03T10:24:38;2.63;;;1.40;;
37425;SDS011;23285;50.180;7.036;2022-08-03T10:27:25;3.37;;;1.37;;
37425;SDS011;23285;50.180;7.036;2022-08-03T10:30:15;2.80;;;1.17;;
37425;SDS011;23285;50.180;7.036;2022-08-03T10:33:01;1.67;;;1.20;;
37425;SDS011;23285;50.180;7.036;2022-08-03T10:35:51;2.83;;;1.30;;
37425;SDS011;23285;50.180;7.036;2022-08-03T10:38:42;3.90;;;1.20;;
37425;SDS011;23285;50.180;7.036;2022-08-03T10:41:31;1.30;;;1.00;;
37425;SDS011;23285;50.180;7.036;2022-08-03T10:44:20;3.03;;;1.00;;
37425;SDS011;23285;50.180;7.036;2022-08-03T10:47:08;2.40;;;1.13;;
37425;SDS011;23285;50.180;7.036;2022-08-03T10:49:54;1.10;;;1.00;;
37425;SDS011;23285;50.180;7.036;2022-08-03T10:52:58;2.73;;;0.93;;
37425;SDS011;23285;50.180;7.036;2022-08-03T10:55:45;1.07;;;1.03;;
37425;SDS011;23285;50.180;7.036;2022-08-03T10:58:49;1.17;;;1.00;;
37425;SDS011;23285;50.180;7.036;2022-08-03T11:01:49;1.43;;;0.80;;
37425;SDS011;23285;50.180;7.036;2022-08-03T11:04:38;3.03;;;0.90;;
37425;SDS011;23285;50.180;7.036;2022-08-03T11:07:24;0.93;;;0.93;;
37425;SDS011;23285;50.180;7.036;2022-08-03T11:10:09;1.10;;;0.80;;
37425;SDS011;23285;50.180;7.036;2022-08-03T11:13:15;1.30;;;1.00;;
37425;SDS011;23285;50.180;7.036;2022-08-03T11:16:17;1.83;;;1.07;;
37425;SDS011;23285;50.180;7.036;2022-08-03T11:19:05;1.30;;;1.00;;
37425;SDS011;23285;50.180;7.036;2022-08-03T11:21:54;1.07;;;1.00;;
37425;SDS011;23285;50.180;7.036;2022-08-03T11:27:33;1.37;;;1.10;;
37425;SDS011;23285;50.180;7.036;2022-08-03T11:33:03;2.43;;;2.10;;
37425;SDS011;23285;50.180;7.036;2022-08-03T11:35:58;1.50;;;1.13;;
37425;SDS011;23285;50.180;7.036;2022-08-03T11:41:59;1.90;;;1.07;;
37425;SDS011;23285;50.180;7.036;2022-08-03T11:45:05;1.00;;;0.90;;
37425;SDS011;23285;50.180;7.036;2022-08-03T11:47:53;1.20;;;1.10;;
37425;SDS011;23285;50.180;7.036;2022-08-03T11:50:38;3.40;;;1.23;;
37425;SDS011;23285;50.180;7.036;2022-08-03T11:53:23;1.93;;;0.83;;
37425;SDS011;23285;50.180;7.036;2022-08-03T11:56:09;2.10;;;1.13;;
37425;SDS011;23285;50.180;7.036;2022-08-03T11:58:54;1.80;;;1.20;;
37425;SDS011;23285;50.180;7.036;2022-08-03T12:01:40;1.47;;;1.10;;
37425;SDS011;23285;50.180;7.036;2022-08-03T12:04:25;4.65;;;1.20;;
37425;SDS011;23285;50.180;7.036;2022-08-03T12:07:10;8.20;;;1.57;;
37425;SDS011;23285;50.180;7.036;2022-08-03T12:12:53;1.13;;;1.02;;
37425;SDS011;23285;50.180;7.036;2022-08-03T12:15:39;5.20;;;1.13;;
37425;SDS011;23285;50.180;7.036;2022-08-03T12:18:25;1.30;;;1.17;;
37425;SDS011;23285;50.180;7.036;2022-08-03T12:21:11;2.15;;;1.02;;
37425;SDS011;23285;50.180;7.036;2022-08-03T12:23:56;0.93;;;0.90;;
37425;SDS011;23285;50.180;7.036;2022-08-03T12:26:48;1.10;;;1.00;;
37425;SDS011;23285;50.180;7.036;2022-08-03T12:29:34;2.28;;;0.98;;
37425;SDS011;23285;50.180;7.036;2022-08-03T12:32:19;3.80;;;0.90;;
37425;SDS011;23285;50.180;7.036;2022-08-03T12:35:05;1.05;;;0.90;;
37425;SDS011;23285;50.180;7.036;2022-08-03T12:37:50;2.85;;;1.10;;
37425;SDS011;23285;50.180;7.036;2022-08-03T12:40:36;2.25;;;1.15;;
37425;SDS011;23285;50.180;7.036;2022-08-03T12:43:21;3.20;;;0.98;;
37425;SDS011;23285;50.180;7.036;2022-08-03T12:46:07;1.40;;;0.95;;
37425;SDS011;23285;50.180;7.036;2022-08-03T12:54:34;2.25;;;1.00;;
37425;SDS011;23285;50.180;7.036;2022-08-03T12:57:19;3.60;;;1.20;;
37425;SDS011;23285;50.180;7.036;2022-08-03T13:00:11;0.93;;;0.93;;
37425;SDS011;23285;50.180;7.036;2022-08-03T13:03:07;1.95;;;1.05;;
37425;SDS011;23285;50.180;7.036;2022-08-03T13:05:52;1.20;;;1.02;;
37425;SDS011;23285;50.180;7.036;2022-08-03T13:08:37;3.92;;;1.17;;
37425;SDS011;23285;50.180;7.036;2022-08-03T13:11:23;1.38;;;0.93;;
37425;SDS011;23285;50.180;7.036;2022-08-03T13:14:09;6.10;;;1.15;;
37425;SDS011;23285;50.180;7.036;2022-08-03T13:16:54;1.08;;;0.80;;
37425;SDS011;23285;50.180;7.036;2022-08-03T13:19:39;3.05;;;0.98;;
37425;SDS011;23285;50.180;7.036;2022-08-03T13:22:25;2.75;;;1.02;;
37425;SDS011;23285;50.180;7.036;2022-08-03T13:25:12;2.35;;;0.80;;
37425;SDS011;23285;50.180;7.036;2022-08-03T13:27:57;1.50;;;0.90;;
37425;SDS011;23285;50.180;7.036;2022-08-03T13:30:42;0.70;;;0.70;;
37425;SDS011;23285;50.180;7.036;2022-08-03T13:33:27;1.98;;;0.80;;
37425;SDS011;23285;50.180;7.036;2022-08-03T13:36:12;3.40;;;0.93;;
37425;SDS011;23285;50.180;7.036;2022-08-03T13:38:58;3.42;;;1.13;;
37425;SDS011;23285;50.180;7.036;2022-08-03T13:41:43;2.90;;;1.00;;
37425;SDS011;23285;50.180;7.036;2022-08-03T13:44:28;1.38;;;1.10;;
37425;SDS011;23285;50.180;7.036;2022-08-03T13:47:14;1.13;;;0.93;;
37425;SDS011;23285;50.180;7.036;2022-08-03T13:49:59;1.67;;;1.00;;
37425;SDS011;23285;50.180;7.036;2022-08-03T13:52:44;3.25;;;0.95;;
37425;SDS011;23285;50.180;7.036;2022-08-03T13:55:31;5.50;;;1.10;;
37425;SDS011;23285;50.180;7.036;2022-08-03T13:58:17;1.20;;;1.10;;
37425;SDS011;23285;50.180;7.036;2022-08-03T14:01:02;4.00;;;1.25;;
37425;SDS011;23285;50.180;7.036;2022-08-03T14:03:47;4.93;;;1.10;;
37425;SDS011;23285;50.180;7.036;2022-08-03T14:06:35;1.98;;;1.10;;
37425;SDS011;23285;50.180;7.036;2022-08-03T14:09:20;1.30;;;1.20;;
37425;SDS011;23285;50.180;7.036;2022-08-03T14:12:05;1.40;;;1.10;;
37425;SDS011;23285;50.180;7.036;2022-08-03T14:14:51;1.52;;;1.10;;
37425;SDS011;23285;50.180;7.036;2022-08-03T14:17:36;2.75;;;1.08;;
37425;SDS011;23285;50.180;7.036;2022-08-03T14:20:21;4.18;;;1.20;;
37425;SDS011;23285;50.180;7.036;2022-08-03T14:23:07;4.22;;;1.20;;
37425;SDS011;23285;50.180;7.036;2022-08-03T14:25:52;1.52;;;1.00;;
37425;SDS011;23285;50.180;7.036;2022-08-03T14:28:37;2.15;;;1.17;;
37425;SDS011;23285;50.180;7.036;2022-08-03T14:31:22;3.53;;;1.27;;
37425;SDS011;23285;50.180;7.036;2022-08-03T14:34:07;1.58;;;1.10;;
37425;SDS011;23285;50.180;7.036;2022-08-03T14:36:52;0.90;;;0.90;;
37425;SDS011;23285;50.180;7.036;2022-08-03T14:39:37;2.85;;;1.02;;
37425;SDS011;23285;50.180;7.036;2022-08-03T14:42:22;5.20;;;1.00;;
37425;SDS011;23285;50.180;7.036;2022-08-03T14:45:08;1.75;;;1.08;;
37425;SDS011;23285;50.180;7.036;2022-08-03T14:47:53;1.30;;;1.20;;
37425;SDS011;23285;50.180;7.036;2022-08-03T14:50:38;2.40;;;1.15;;
37425;SDS011;23285;50.180;7.036;2022-08-03T14:53:23;2.17;;;1.20;;
37425;SDS011;23285;50.180;7.036;2022-08-03T14:56:08;1.20;;;1.10;;
37425;SDS011;23285;50.180;7.036;2022-08-03T14:58:53;3.75;;;1.00;;
37425;SDS011;23285;50.180;7.036;2022-08-03T15:01:38;4.18;;;1.08;;
37425;SDS011;23285;50.180;7.036;2022-08-03T15:04:23;1.15;;;0.90;;
37425;SDS011;23285;50.180;7.036;2022-08-03T15:07:08;0.80;;;0.80;;
37425;SDS011;23285;50.180;7.036;2022-08-03T15:09:54;1.08;;;0.80;;
37425;SDS011;23285;50.180;7.036;2022-08-03T15:12:39;1.77;;;0.60;;
37425;SDS011;23285;50.180;7.036;2022-08-03T15:15:25;1.38;;;1.05;;
37425;SDS011;23285;50.180;7.036;2022-08-03T15:18:10;3.67;;;0.80;;
37425;SDS011;23285;50.180;7.036;2022-08-03T15:20:56;1.85;;;0.80;;
37425;SDS011;23285;50.180;7.036;2022-08-03T15:23:41;2.97;;;0.88;;
37425;SDS011;23285;50.180;7.036;2022-08-03T15:26:26;1.33;;;0.90;;
37425;SDS011;23285;50.180;7.036;2022-08-03T15:29:11;0.98;;;0.88;;
37425;SDS011;23285;50.180;7.036;2022-08-03T15:31:56;1.80;;;1.25;;
37425;SDS011;23285;50.180;7.036;2022-08-03T15:34:42;1.45;;;0.70;;
37425;SDS011;23285;50.180;7.036;2022-08-03T15:37:27;1.25;;;1.10;;
37425;SDS011;23285;50.180;7.036;2022-08-03T15:40:12;0.93;;;0.85;;
37425;SDS011;23285;50.180;7.036;2022-08-03T15:42:58;1.08;;;0.88;;
37425;SDS011;23285;50.180;7.036;2022-08-03T15:45:45;0.77;;;0.77;;
37425;SDS011;23285;50.180;7.036;2022-08-03T15:48:30;2.60;;;1.00;;
37425;SDS011;23285;50.180;7.036;2022-08-03T15:51:15;1.45;;;0.77;;
37425;SDS011;23285;50.180;7.036;2022-08-03T15:54:00;1.73;;;0.93;;
37425;SDS011;23285;50.180;7.036;2022-08-03T15:56:45;3.40;;;1.00;;
37425;SDS011;23285;50.180;7.036;2022-08-03T15:59:30;1.45;;;0.95;;
37425;SDS011;23285;50.180;7.036;2022-08-03T16:02:16;1.98;;;0.85;;
37425;SDS011;23285;50.180;7.036;2022-08-03T16:05:01;4.40;;;1.00;;
37425;SDS011;23285;50.180;7.036;2022-08-03T16:07:47;2.28;;;1.20;;
37425;SDS011;23285;50.180;7.036;2022-08-03T16:10:36;0.82;;;0.80;;
37425;SDS011;23285;50.180;7.036;2022-08-03T16:13:21;1.73;;;1.10;;
37425;SDS011;23285;50.180;7.036;2022-08-03T16:16:07;14.88;;;1.50;;
37425;SDS011;23285;50.180;7.036;2022-08-03T16:18:52;5.78;;;1.33;;
37425;SDS011;23285;50.180;7.036;2022-08-03T16:21:38;0.93;;;0.93;;
37425;SDS011;23285;50.180;7.036;2022-08-03T16:24:23;1.17;;;0.88;;
37425;SDS011;23285;50.180;7.036;2022-08-03T16:27:08;1.17;;;1.08;;
37425;SDS011;23285;50.180;7.036;2022-08-03T16:29:53;1.50;;;0.90;;
37425;SDS011;23285;50.180;7.036;2022-08-03T16:32:38;2.55;;;0.90;;
37425;SDS011;23285;50.180;7.036;2022-08-03T16:35:23;2.28;;;0.90;;
37425;SDS011;23285;50.180;7.036;2022-08-03T16:38:08;3.38;;;1.20;;
37425;SDS011;23285;50.180;7.036;2022-08-03T16:40:53;2.28;;;1.15;;
37425;SDS011;23285;50.180;7.036;2022-08-03T16:43:38;0.90;;;0.90;;
37425;SDS011;23285;50.180;7.036;2022-08-03T16:46:23;2.05;;;1.00;;
37425;SDS011;23285;50.180;7.036;2022-08-03T16:49:08;1.80;;;1.10;;
37425;SDS011;23285;50.180;7.036;2022-08-03T16:51:54;1.52;;;0.90;;
37425;SDS011;23285;50.180;7.036;2022-08-03T16:54:40;2.30;;;1.10;;
37425;SDS011;23285;50.180;7.036;2022-08-03T16:57:25;3.00;;;1.13;;
37425;SDS011;23285;50.180;7.036;2022-08-03T17:00:11;2.03;;;1.00;;
37425;SDS011;23285;50.180;7.036;2022-08-03T17:02:57;1.27;;;0.90;;
37425;SDS011;23285;50.180;7.036;2022-08-03T17:05:44;1.67;;;1.00;;
37425;SDS011;23285;50.180;7.036;2022-08-03T17:08:29;2.40;;;0.90;;
37425;SDS011;23285;50.180;7.036;2022-08-03T17:11:15;1.60;;;1.00;;
37425;SDS011;23285;50.180;7.036;2022-08-03T17:14:00;1.90;;;1.00;;
37425;SDS011;23285;50.180;7.036;2022-08-03T17:16:45;3.65;;;1.13;;
37425;SDS011;23285;50.180;7.036;2022-08-03T17:19:31;2.08;;;1.10;;